createdAt,value
2019-06-26T19:02:51.085Z,18.32
2019-06-26T19:05:19.574Z,16.25
2019-06-26T19:07:47.995Z,13.03
2019-06-26T19:10:16.419Z,12.50
2019-06-26T19:12:48.938Z,10.88
2019-06-26T19:15:40.235Z,12.13
2019-06-26T19:18:12.964Z,9.58
2019-06-26T19:20:45.882Z,9.55
2019-06-26T19:23:18.956Z,12.63
2019-06-26T19:25:51.136Z,9.48
2019-06-26T19:28:23.440Z,12.23
2019-06-26T19:33:45.660Z,12.00
2019-06-26T19:36:16.465Z,11.28
2019-06-26T19:38:45.927Z,12.00
2019-06-26T19:44:09.016Z,10.93
2019-06-26T19:47:01.046Z,11.88
2019-06-26T19:49:52.609Z,14.03
2019-06-26T19:52:24.570Z,14.45
2019-06-26T19:57:32.951Z,12.10
2019-06-26T20:00:04.623Z,13.05
2019-06-26T20:02:35.998Z,9.68
2019-06-26T20:05:09.018Z,12.33
2019-06-26T20:07:40.758Z,13.25
2019-06-26T20:10:12.739Z,12.35
2019-06-26T20:12:43.357Z,10.45
2019-06-26T20:15:15.487Z,12.33
2019-06-26T20:17:47.742Z,15.18
2019-06-26T20:20:19.944Z,12.63
2019-06-26T20:22:50.322Z,13.53
2019-06-26T20:25:42.372Z,10.63
2019-06-26T20:28:15.198Z,12.65
2019-06-26T20:30:47.382Z,9.50
2019-06-26T20:33:18.885Z,12.18
2019-06-26T20:35:51.260Z,11.83
2019-06-26T20:38:43.326Z,11.18
2019-06-26T20:41:16.480Z,14.03
2019-06-26T20:43:48.654Z,12.25
2019-06-26T20:46:21.196Z,9.68
2019-06-26T20:48:52.789Z,14.10
2019-06-26T20:51:27.949Z,14.78
2019-06-26T20:54:17.686Z,13.93
2019-06-26T20:56:50.339Z,11.83
2019-06-26T20:59:23.384Z,10.88
2019-06-26T21:01:59.012Z,10.78
2019-06-26T21:04:51.106Z,12.93
2019-06-26T21:07:22.755Z,12.98
2019-06-26T21:09:55.230Z,11.45
2019-06-26T21:12:35.970Z,10.72
2019-06-26T21:15:03.858Z,13.03
2019-06-26T21:17:43.843Z,10.32
2019-06-26T21:20:14.730Z,11.10
2019-06-26T21:22:47.472Z,11.25
2019-06-26T21:25:22.218Z,11.65
2019-06-26T21:27:56.171Z,10.60
2019-06-26T21:30:31.671Z,10.50
2019-06-26T21:33:05.367Z,10.88
2019-06-26T21:35:34.127Z,10.58
2019-06-26T21:38:02.694Z,11.73
2019-06-26T21:40:31.334Z,10.25
2019-06-26T21:42:59.966Z,12.37
2019-06-26T21:45:28.444Z,14.13
2019-06-26T21:47:56.883Z,16.55
2019-06-26T21:50:29.331Z,11.40
2019-06-26T21:52:59.505Z,11.00
2019-06-26T21:55:34.141Z,13.32
2019-06-26T21:57:58.084Z,13.13
2019-06-26T22:00:28.151Z,10.65
2019-06-26T22:02:57.849Z,10.75
2019-06-26T22:05:26.896Z,11.97
2019-06-26T22:07:56.374Z,13.45
2019-06-26T22:10:24.933Z,10.70
2019-06-26T22:12:57.595Z,12.23
2019-06-26T22:15:23.735Z,13.45
2019-06-26T22:17:52.244Z,11.22
2019-06-26T22:20:20.944Z,11.93
2019-06-26T22:22:49.440Z,11.45
2019-06-26T22:25:18.093Z,13.08
2019-06-26T22:27:48.663Z,10.80
2019-06-26T22:30:19.377Z,14.73
2019-06-26T22:32:49.295Z,11.25
2019-06-26T22:35:21.448Z,14.35
2019-06-26T22:40:48.045Z,16.37
2019-06-26T22:43:40.185Z,12.85
2019-06-26T22:46:17.204Z,15.83
2019-06-26T22:48:50.468Z,16.02
2019-06-26T22:51:25.793Z,13.40
2019-06-26T22:53:57.041Z,13.90
2019-06-26T22:56:30.211Z,11.43
2019-06-26T22:59:27.423Z,10.90
2019-06-26T23:01:56.818Z,12.33
2019-06-26T23:04:55.027Z,10.58
2019-06-26T23:07:28.544Z,11.68
2019-06-26T23:10:10.456Z,14.63
2019-06-26T23:12:38.348Z,14.40
2019-06-26T23:15:17.353Z,15.50
2019-06-26T23:17:49.534Z,12.55
2019-06-26T23:20:41.285Z,15.70
2019-06-26T23:23:13.895Z,18.00
2019-06-26T23:26:22.761Z,17.10
2019-06-26T23:28:38.576Z,16.12
2019-06-26T23:31:29.956Z,21.30
2019-06-26T23:34:02.137Z,16.12
2019-06-26T23:36:32.543Z,19.00
2019-06-26T23:39:00.704Z,19.52
2019-06-26T23:41:29.217Z,17.30
2019-06-26T23:44:00.954Z,17.67
2019-06-26T23:46:35.697Z,17.30
2019-06-26T23:49:01.357Z,20.25
2019-06-26T23:51:29.835Z,19.90
2019-06-26T23:53:59.954Z,23.35
2019-06-26T23:56:39.958Z,20.08
2019-06-26T23:59:00.812Z,20.92
